Time;durP1;ratioP1;P1;durP2;ratioP2;P2;SDS_P1;SDS_P2;PMS_P1;PMS_P2;Temp;Humidity;BMP_temperature;BMP_pressure;BME280_temperature;BME280_humidity;BME280_pressure;Samples;Min_cycle;Max_cycle;Signal;HPM_P1;HPM_P2
2023/05/17 00:00:05;;;;;;;0.13;0.13;;;;;;;;;;1017216;29;20024;-73
2023/05/17 00:00:36;;;;;;;3.53;2.28;;;;;;;;;;1020841;29;20054;-72
2023/05/17 00:01:06;;;;;;;0.00;0.00;;;;;;;;;;1020980;29;20027;-72
2023/05/17 00:01:37;;;;;;;0.15;0.15;;;;;;;;;;1023277;29;20059;-72
2023/05/17 00:02:07;;;;;;;0.10;0.10;;;;;;;;;;1023908;29;20664;-72
2023/05/17 00:02:38;;;;;;;0.10;0.08;;;;;;;;;;1023509;29;20095;-72
2023/05/17 00:03:08;;;;;;;0.52;0.40;;;;;;;;;;1020724;29;20035;-72
2023/05/17 00:03:39;;;;;;;0.08;0.08;;;;;;;;;;1021843;29;20027;-72
2023/05/17 00:04:09;;;;;;;0.25;0.25;;;;;;;;;;1021250;29;20031;-72
2023/05/17 00:04:40;;;;;;;0.32;0.32;;;;;;;;;;1025683;29;20122;-72
2023/05/17 00:05:10;;;;;;;1.88;1.65;;;;;;;;;;1022495;29;20043;-72
2023/05/17 00:05:41;;;;;;;0.10;0.10;;;;;;;;;;1021969;29;20098;-72
2023/05/17 00:06:11;;;;;;;6.82;0.43;;;;;;;;;;1022871;29;20031;-72
2023/05/17 00:06:42;;;;;;;0.08;0.08;;;;;;;;;;1017882;29;20416;-72
2023/05/17 00:07:12;;;;;;;0.10;0.10;;;;;;;;;;1022781;29;20040;-72
2023/05/17 00:07:43;;;;;;;0.10;0.10;;;;;;;;;;1020485;29;20028;-72
2023/05/17 00:08:13;;;;;;;0.10;0.10;;;;;;;;;;1021762;29;20023;-72
2023/05/17 00:08:44;;;;;;;3.63;1.35;;;;;;;;;;1025463;29;20039;-72
2023/05/17 00:09:15;;;;;;;0.38;0.38;;;;;;;;;;1024066;29;20094;-72
2023/05/17 00:09:45;;;;;;;0.15;0.15;;;;;;;;;;1021247;29;20050;-72
2023/05/17 00:10:16;;;;;;;0.52;0.30;;;;;;;;;;1022356;29;20078;-72
2023/05/17 00:10:46;;;;;;;0.25;0.25;;;;;;;;;;1024049;29;20039;-72
2023/05/17 00:11:16;;;;;;;0.43;0.43;;;;;;;;;;1023514;29;20030;-72
2023/05/17 00:11:47;;;;;;;0.35;0.22;;;;;;;;;;1022770;29;20105;-72
2023/05/17 00:12:17;;;;;;;0.52;0.52;;;;;;;;;;1023034;29;20515;-72
2023/05/17 00:12:48;;;;;;;1.13;0.68;;;;;;;;;;1025748;28;20035;-72
2023/05/17 00:13:18;;;;;;;3.78;0.52;;;;;;;;;;1020101;29;20148;-72
2023/05/17 00:13:49;;;;;;;0.85;0.45;;;;;;;;;;1019166;29;20031;-72
2023/05/17 00:14:19;;;;;;;1.48;1.38;;;;;;;;;;1019025;29;20023;-72
2023/05/17 00:14:50;;;;;;;0.35;0.35;;;;;;;;;;1019603;29;20110;-72
2023/05/17 00:15:20;;;;;;;0.10;0.10;;;;;;;;;;1024712;29;20075;-72
2023/05/17 00:15:51;;;;;;;1.33;1.10;;;;;;;;;;1022211;29;20023;-72
2023/05/17 00:16:21;;;;;;;0.22;0.22;;;;;;;;;;1027456;28;20019;-72
2023/05/17 00:16:52;;;;;;;0.10;0.10;;;;;;;;;;1024251;29;20121;-72
2023/05/17 00:17:22;;;;;;;1.50;1.02;;;;;;;;;;1022480;29;20028;-72
2023/05/17 00:17:53;;;;;;;0.20;0.17;;;;;;;;;;1017750;29;20028;-72
2023/05/17 00:18:23;;;;;;;1.30;1.25;;;;;;;;;;1012395;29;20072;-73
2023/05/17 00:18:54;;;;;;;0.65;0.65;;;;;;;;;;1016932;29;20024;-73
2023/05/17 00:19:24;;;;;;;0.20;0.20;;;;;;;;;;1021482;29;20020;-72
2023/05/17 00:19:55;;;;;;;0.70;0.52;;;;;;;;;;1026109;29;20031;-72
2023/05/17 00:20:26;;;;;;;0.10;0.10;;;;;;;;;;1023620;29;20039;-72
2023/05/17 00:20:56;;;;;;;1.00;0.60;;;;;;;;;;1025179;29;20042;-72
2023/05/17 00:21:27;;;;;;;0.63;0.63;;;;;;;;;;1021679;29;20027;-72
2023/05/17 00:21:57;;;;;;;2.10;1.88;;;;;;;;;;1023149;29;20091;-72
2023/05/17 00:22:28;;;;;;;1.08;0.35;;;;;;;;;;1022806;29;20031;-72
2023/05/17 00:22:59;;;;;;;0.10;0.10;;;;;;;;;;1023323;28;20106;-72
2023/05/17 00:23:30;;;;;;;0.93;0.85;;;;;;;;;;1021349;29;20555;-72
2023/05/17 00:24:00;;;;;;;2.63;1.35;;;;;;;;;;1022618;29;20020;-73
2023/05/17 00:24:31;;;;;;;1.00;0.77;;;;;;;;;;1022185;29;20024;-73
2023/05/17 00:25:01;;;;;;;10.82;2.42;;;;;;;;;;1023619;29;20083;-73
2023/05/17 00:25:32;;;;;;;1.55;1.02;;;;;;;;;;1019868;29;20476;-73
2023/05/17 00:26:02;;;;;;;0.30;0.30;;;;;;;;;;1019204;29;20450;-73
2023/05/17 00:26:33;;;;;;;1.55;1.45;;;;;;;;;;1024403;29;20030;-73
2023/05/17 00:27:03;;;;;;;0.43;0.40;;;;;;;;;;1022411;29;20495;-73
2023/05/17 00:27:34;;;;;;;1.45;0.90;;;;;;;;;;1022021;29;20027;-72
2023/05/17 00:28:04;;;;;;;1.90;1.80;;;;;;;;;;1024771;28;20035;-72
2023/05/17 00:28:35;;;;;;;9.40;1.55;;;;;;;;;;1024622;29;20030;-72
2023/05/17 00:29:05;;;;;;;2.70;1.35;;;;;;;;;;1022044;29;20024;-72
2023/05/17 00:29:36;;;;;;;1.85;1.10;;;;;;;;;;1020446;29;20023;-72
2023/05/17 00:30:07;;;;;;;8.00;1.27;;;;;;;;;;1021435;29;20068;-72
2023/05/17 00:30:37;;;;;;;0.20;0.17;;;;;;;;;;1022640;29;20024;-72
2023/05/17 00:31:07;;;;;;;5.95;1.35;;;;;;;;;;1022176;29;20086;-72
2023/05/17 00:31:38;;;;;;;0.50;0.50;;;;;;;;;;1023398;29;20083;-72
2023/05/17 00:32:08;;;;;;;0.32;0.30;;;;;;;;;;1023549;29;20020;-72
2023/05/17 00:32:39;;;;;;;9.52;1.25;;;;;;;;;;1029991;28;20071;-72
2023/05/17 00:33:09;;;;;;;0.75;0.40;;;;;;;;;;1028238;28;20015;-72
2023/05/17 00:33:40;;;;;;;0.20;0.20;;;;;;;;;;1022417;29;20067;-72
2023/05/17 00:34:10;;;;;;;6.18;0.70;;;;;;;;;;1023553;29;20028;-72
2023/05/17 00:34:41;;;;;;;1.20;1.10;;;;;;;;;;1023066;29;20490;-72
2023/05/17 00:35:11;;;;;;;13.77;1.45;;;;;;;;;;1023417;29;20027;-72
2023/05/17 00:35:42;;;;;;;0.75;0.75;;;;;;;;;;1022999;29;20050;-72
2023/05/17 00:36:12;;;;;;;0.10;0.10;;;;;;;;;;1022664;29;20109;-72
2023/05/17 00:36:43;;;;;;;0.82;0.82;;;;;;;;;;1021765;29;20025;-72
2023/05/17 00:37:13;;;;;;;0.05;0.05;;;;;;;;;;1022374;28;20494;-72
2023/05/17 00:37:46;;;;;;;0.75;0.57;;;;;;;;;;1022603;28;20027;-72
2023/05/17 00:38:17;;;;;;;2.97;1.83;;;;;;;;;;1022288;29;20023;-72
2023/05/17 00:38:47;;;;;;;0.40;0.40;;;;;;;;;;1022692;29;20023;-72
2023/05/17 00:39:18;;;;;;;2.63;0.65;;;;;;;;;;1019624;29;20024;-72
2023/05/17 00:39:48;;;;;;;1.10;1.00;;;;;;;;;;1018565;29;20055;-72
2023/05/17 00:40:18;;;;;;;3.35;1.27;;;;;;;;;;1019928;29;20548;-72
2023/05/17 00:40:49;;;;;;;3.67;0.47;;;;;;;;;;1021872;29;20023;-72
2023/05/17 00:41:20;;;;;;;1.17;1.10;;;;;;;;;;1022820;29;20026;-72
2023/05/17 00:41:50;;;;;;;2.22;2.03;;;;;;;;;;1021125;29;20086;-72
2023/05/17 00:42:21;;;;;;;3.13;2.88;;;;;;;;;;1020641;29;20134;-72
2023/05/17 00:42:51;;;;;;;0.00;0.00;;;;;;;;;;1022943;29;20023;-72
2023/05/17 00:43:22;;;;;;;0.70;0.70;;;;;;;;;;1026717;29;20114;-72
2023/05/17 00:43:52;;;;;;;2.00;0.45;;;;;;;;;;1020931;29;20506;-72
2023/05/17 00:44:23;;;;;;;7.03;1.77;;;;;;;;;;1022286;29;20032;-72
2023/05/17 00:44:53;;;;;;;0.10;0.10;;;;;;;;;;1024795;28;20098;-72
2023/05/17 00:45:24;;;;;;;2.88;2.63;;;;;;;;;;1024870;29;20023;-72
2023/05/17 00:45:54;;;;;;;0.55;0.30;;;;;;;;;;1022734;29;20034;-72
2023/05/17 00:46:25;;;;;;;0.52;0.43;;;;;;;;;;1021949;29;20027;-73
2023/05/17 00:46:58;;;;;;;0.00;0.00;;;;;;;;;;1021921;29;20751;-73
2023/05/17 00:47:28;;;;;;;0.88;0.47;;;;;;;;;;1023228;29;20050;-72
2023/05/17 00:47:59;;;;;;;0.68;0.60;;;;;;;;;;1021816;28;20026;-72
2023/05/17 00:48:29;;;;;;;0.17;0.17;;;;;;;;;;1023076;28;20498;-72
2023/05/17 00:49:00;;;;;;;0.45;0.22;;;;;;;;;;1027313;28;20023;-72
2023/05/17 00:49:31;;;;;;;0.55;0.52;;;;;;;;;;1027139;28;20031;-72
2023/05/17 00:50:01;;;;;;;0.15;0.15;;;;;;;;;;1024382;29;20027;-72
2023/05/17 00:50:32;;;;;;;0.25;0.10;;;;;;;;;;1025115;29;20464;-72
2023/05/17 00:51:03;;;;;;;1.08;1.08;;;;;;;;;;1025604;29;20027;-72
2023/05/17 00:51:34;;;;;;;2.20;0.85;;;;;;;;;;1023839;29;20027;-72
2023/05/17 00:52:04;;;;;;;1.38;1.25;;;;;;;;;;1023120;29;20031;-72
2023/05/17 00:52:35;;;;;;;0.52;0.52;;;;;;;;;;1022922;29;20019;-72
2023/05/17 00:53:06;;;;;;;0.73;0.32;;;;;;;;;;1022257;29;20035;-72
2023/05/17 00:53:36;;;;;;;2.80;2.05;;;;;;;;;;1023738;29;20122;-72
2023/05/17 00:54:07;;;;;;;1.23;1.08;;;;;;;;;;1024525;28;20027;-72
2023/05/17 00:54:38;;;;;;;5.15;0.85;;;;;;;;;;1024560;28;20529;-73
2023/05/17 00:55:08;;;;;;;0.40;0.40;;;;;;;;;;1022096;29;20054;-73
2023/05/17 00:55:39;;;;;;;6.45;2.30;;;;;;;;;;1024129;29;20114;-73
2023/05/17 00:56:10;;;;;;;0.05;0.05;;;;;;;;;;1024485;28;20061;-73
2023/05/17 00:56:40;;;;;;;1.00;0.93;;;;;;;;;;1024142;29;20027;-73
2023/05/17 00:57:11;;;;;;;12.77;4.18;;;;;;;;;;1025390;28;20525;-73
2023/05/17 00:57:42;;;;;;;0.47;0.47;;;;;;;;;;1022287;28;20118;-73
2023/05/17 00:58:13;;;;;;;4.68;1.00;;;;;;;;;;1023177;29;20019;-73
2023/05/17 00:58:43;;;;;;;2.83;2.63;;;;;;;;;;1023194;29;20038;-73
2023/05/17 00:59:14;;;;;;;0.20;0.20;;;;;;;;;;1023898;29;20030;-73
2023/05/17 00:59:46;;;;;;;0.77;0.52;;;;;;;;;;1019097;29;20027;-73
2023/05/17 01:00:17;;;;;;;7.93;0.47;;;;;;;;;;1019897;29;20074;-72
2023/05/17 01:00:48;;;;;;;1.60;1.48;;;;;;;;;;1020757;29;20023;-72
2023/05/17 01:01:19;;;;;;;2.08;1.02;;;;;;;;;;1022658;29;20035;-72
2023/05/17 01:01:50;;;;;;;0.30;0.28;;;;;;;;;;1019572;29;20024;-73
2023/05/17 01:02:21;;;;;;;3.13;0.30;;;;;;;;;;1022568;29;20138;-73
2023/05/17 01:02:52;;;;;;;0.65;0.65;;;;;;;;;;1024853;29;20410;-73
2023/05/17 01:03:22;;;;;;;2.05;0.80;;;;;;;;;;1024029;29;20388;-73
2023/05/17 01:03:53;;;;;;;8.07;0.85;;;;;;;;;;1023519;29;20042;-73
2023/05/17 01:04:23;;;;;;;2.53;0.45;;;;;;;;;;1021154;29;20027;-73
2023/05/17 01:04:54;;;;;;;1.75;0.77;;;;;;;;;;1021437;29;20079;-73
2023/05/17 01:05:27;;;;;;;2.15;1.17;;;;;;;;;;1021511;29;20580;-73
2023/05/17 01:05:57;;;;;;;0.10;0.10;;;;;;;;;;1023039;29;20094;-73
2023/05/17 01:06:28;;;;;;;0.00;0.00;;;;;;;;;;1025172;28;20046;-73
2023/05/17 01:06:58;;;;;;;1.67;0.05;;;;;;;;;;1023677;28;20684;-73
2023/05/17 01:07:29;;;;;;;0.10;0.10;;;;;;;;;;1021867;29;20016;-73
2023/05/17 01:07:59;;;;;;;0.00;0.00;;;;;;;;;;1020856;29;20115;-73
2023/05/17 01:08:30;;;;;;;7.03;0.60;;;;;;;;;;1022160;29;20027;-73
2023/05/17 01:09:00;;;;;;;0.32;0.30;;;;;;;;;;1022080;29;20380;-73
2023/05/17 01:09:31;;;;;;;25.25;1.50;;;;;;;;;;1022063;28;20019;-73
2023/05/17 01:10:01;;;;;;;9.32;2.65;;;;;;;;;;1022401;29;20114;-73
2023/05/17 01:10:37;;;;;;;15.45;1.55;;;;;;;;;;1022282;29;20062;-73
2023/05/17 01:11:13;;;;;;;11.40;4.07;;;;;;;;;;1027555;28;20019;-73
2023/05/17 01:12:04;;;;;;;0.88;0.75;;;;;;;;;;1024264;29;20058;-73
2023/05/17 01:12:50;;;;;;;1.90;1.60;;;;;;;;;;1024502;28;20026;-73
2023/05/17 01:13:41;;;;;;;0.60;0.45;;;;;;;;;;1026777;28;20027;-73
2023/05/17 01:14:20;;;;;;;3.70;1.45;;;;;;;;;;1020641;29;20545;-73
2023/05/17 01:14:53;;;;;;;0.00;0.00;;;;;;;;;;1025743;29;20023;-73
2023/05/17 01:15:30;;;;;;;0.22;0.20;;;;;;;;;;1024581;29;20023;-73
2023/05/17 01:16:15;;;;;;;2.58;2.38;;;;;;;;;;1021374;29;20067;-73
2023/05/17 01:16:55;;;;;;;0.90;0.77;;;;;;;;;;1023082;29;20038;-73
2023/05/17 01:17:34;;;;;;;7.95;1.17;;;;;;;;;;1021763;29;20372;-73
2023/05/17 01:18:43;;;;;;;3.80;1.48;;;;;;;;;;1017108;29;20043;-73
2023/05/17 01:19:32;;;;;;;0.20;0.20;;;;;;;;;;984419;29;20591;-73
2023/05/17 01:20:09;;;;;;;0.00;0.00;;;;;;;;;;1009325;29;20024;-73
2023/05/17 01:20:42;;;;;;;0.00;0.00;;;;;;;;;;1008743;29;20474;-73
2023/05/17 01:21:31;;;;;;;0.40;0.35;;;;;;;;;;1009060;29;20548;-73
2023/05/17 01:22:40;;;;;;;0.75;0.75;;;;;;;;;;1010557;29;20437;-73
2023/05/17 01:23:19;;;;;;;14.05;2.38;;;;;;;;;;1004214;29;20490;-73
2023/05/17 01:24:08;;;;;;;0.30;0.30;;;;;;;;;;1004815;29;20034;-73
2023/05/17 01:24:49;;;;;;;1.13;0.63;;;;;;;;;;1002710;29;20034;-72
2023/05/17 01:25:23;;;;;;;0.00;0.00;;;;;;;;;;1011163;29;20032;-72
2023/05/17 01:26:03;;;;;;;0.00;0.00;;;;;;;;;;1008112;29;20029;-72
2023/05/17 01:26:36;;;;;;;4.55;1.35;;;;;;;;;;1009665;29;20573;-72
2023/05/17 01:27:08;;;;;;;3.58;1.20;;;;;;;;;;1009855;29;20024;-72
2023/05/17 01:27:40;;;;;;;0.85;0.85;;;;;;;;;;1010029;29;20107;-72
2023/05/17 01:28:11;;;;;;;20.48;0.77;;;;;;;;;;1009979;29;20028;-72
2023/05/17 01:28:43;;;;;;;1.27;0.80;;;;;;;;;;1007449;29;20820;-73
2023/05/17 01:29:15;;;;;;;1.75;0.75;;;;;;;;;;1015944;29;20032;-73
2023/05/17 01:29:48;;;;;;;0.98;0.98;;;;;;;;;;1021430;29;20099;-73
2023/05/17 01:30:20;;;;;;;0.00;0.00;;;;;;;;;;1021227;28;20576;-73
2023/05/17 01:30:51;;;;;;;1.67;0.98;;;;;;;;;;1019430;29;20069;-73
2023/05/17 01:31:22;;;;;;;0.00;0.00;;;;;;;;;;1019782;29;20142;-73
2023/05/17 01:31:53;;;;;;;0.05;0.05;;;;;;;;;;1016265;29;20500;-73
2023/05/17 01:32:24;;;;;;;2.08;0.40;;;;;;;;;;1016890;29;20031;-73
2023/05/17 01:32:57;;;;;;;2.72;1.88;;;;;;;;;;1018832;29;20062;-73
2023/05/17 01:33:28;;;;;;;0.35;0.35;;;;;;;;;;1021180;28;20027;-73
2023/05/17 01:34:00;;;;;;;0.10;0.10;;;;;;;;;;1013127;29;20027;-73
2023/05/17 01:34:30;;;;;;;2.30;1.48;;;;;;;;;;1018174;29;20035;-73
2023/05/17 01:35:03;;;;;;;5.72;2.60;;;;;;;;;;1018818;29;20090;-73
2023/05/17 01:35:33;;;;;;;1.88;0.98;;;;;;;;;;1020865;29;20023;-73
2023/05/17 01:36:04;;;;;;;1.95;0.52;;;;;;;;;;1018957;29;20102;-73
2023/05/17 01:36:36;;;;;;;1.52;1.42;;;;;;;;;;1021312;29;20035;-73
2023/05/17 01:37:06;;;;;;;0.80;0.50;;;;;;;;;;1022137;28;20033;-73
2023/05/17 01:37:37;;;;;;;0.40;0.15;;;;;;;;;;1025268;29;20035;-73
2023/05/17 01:38:08;;;;;;;0.55;0.55;;;;;;;;;;1024126;28;20043;-73
2023/05/17 01:38:39;;;;;;;0.00;0.00;;;;;;;;;;1025828;28;20041;-73
2023/05/17 01:39:09;;;;;;;5.53;0.60;;;;;;;;;;1026059;28;20023;-73
2023/05/17 01:39:40;;;;;;;0.40;0.40;;;;;;;;;;1019335;29;20050;-73
2023/05/17 01:40:11;;;;;;;4.03;1.65;;;;;;;;;;1022902;29;20051;-73
2023/05/17 01:40:46;;;;;;;1.45;1.35;;;;;;;;;;1019812;29;20024;-73
2023/05/17 01:41:28;;;;;;;0.43;0.30;;;;;;;;;;1014018;29;20028;-73
2023/05/17 01:42:06;;;;;;;2.75;0.73;;;;;;;;;;1018307;29;21015;-73
2023/05/17 01:42:41;;;;;;;0.90;0.55;;;;;;;;;;1018750;29;20968;-73
2023/05/17 01:43:23;;;;;;;0.20;0.20;;;;;;;;;;1020553;29;20032;-73
2023/05/17 01:43:59;;;;;;;2.45;0.75;;;;;;;;;;1018313;29;20031;-73
2023/05/17 01:44:56;;;;;;;0.25;0.25;;;;;;;;;;1021975;29;20491;-73
2023/05/17 01:45:31;;;;;;;1.00;0.68;;;;;;;;;;1016954;29;20099;-73
2023/05/17 01:46:11;;;;;;;0.95;0.90;;;;;;;;;;1018858;28;20016;-73
2023/05/17 01:46:42;;;;;;;0.00;0.00;;;;;;;;;;1024659;28;20082;-73
2023/05/17 01:47:28;;;;;;;0.00;0.00;;;;;;;;;;1022713;28;20039;-73
2023/05/17 01:48:05;;;;;;;1.23;1.10;;;;;;;;;;1022186;28;20122;-73
2023/05/17 01:48:39;;;;;;;0.20;0.20;;;;;;;;;;1019163;29;20039;-73
2023/05/17 01:49:17;;;;;;;14.15;1.85;;;;;;;;;;1020377;29;20047;-73
2023/05/17 01:49:52;;;;;;;0.20;0.10;;;;;;;;;;1017020;29;20103;-73
2023/05/17 01:50:24;;;;;;;1.70;1.60;;;;;;;;;;1018161;29;20035;-73
2023/05/17 01:50:56;;;;;;;0.28;0.25;;;;;;;;;;1012225;29;20025;-73
2023/05/17 01:51:29;;;;;;;4.13;1.77;;;;;;;;;;1013512;29;20108;-73
2023/05/17 01:52:18;;;;;;;1.52;0.90;;;;;;;;;;1012694;29;20072;-73
2023/05/17 01:52:52;;;;;;;0.25;0.25;;;;;;;;;;1021927;29;20459;-73
2023/05/17 01:53:29;;;;;;;0.65;0.50;;;;;;;;;;1018258;29;20584;-73
2023/05/17 01:54:03;;;;;;;0.57;0.57;;;;;;;;;;1021223;28;20394;-73
2023/05/17 01:54:41;;;;;;;1.45;0.47;;;;;;;;;;1024905;28;20031;-73
2023/05/17 01:55:22;;;;;;;0.30;0.17;;;;;;;;;;1022786;28;20035;-73
2023/05/17 01:55:54;;;;;;;0.70;0.20;;;;;;;;;;1023642;28;20657;-73
2023/05/17 01:56:26;;;;;;;0.35;0.35;;;;;;;;;;1020811;28;20215;-73
2023/05/17 01:56:58;;;;;;;0.45;0.45;;;;;;;;;;1021255;29;20023;-73
2023/05/17 01:57:31;;;;;;;0.20;0.20;;;;;;;;;;1023629;28;20054;-73
2023/05/17 01:58:05;;;;;;;1.13;0.98;;;;;;;;;;1021139;28;20032;-73
2023/05/17 01:58:45;;;;;;;0.40;0.40;;;;;;;;;;1021161;29;20119;-73
2023/05/17 01:59:20;;;;;;;0.03;0.03;;;;;;;;;;1021831;29;20050;-73
2023/05/17 01:59:51;;;;;;;0.40;0.38;;;;;;;;;;1019284;29;20043;-73
2023/05/17 02:00:24;;;;;;;0.80;0.80;;;;;;;;;;1021098;28;20550;-73
2023/05/17 02:00:55;;;;;;;0.75;0.75;;;;;;;;;;1021017;28;20039;-73
2023/05/17 02:01:27;;;;;;;0.82;0.77;;;;;;;;;;1020680;29;20035;-73
2023/05/17 02:02:05;;;;;;;2.38;0.40;;;;;;;;;;1023118;29;20023;-73
2023/05/17 02:02:35;;;;;;;2.63;0.45;;;;;;;;;;1025051;29;20046;-73
2023/05/17 02:03:06;;;;;;;3.53;0.90;;;;;;;;;;1024569;28;20033;-73
2023/05/17 02:03:36;;;;;;;0.20;0.15;;;;;;;;;;1021320;29;20095;-73
2023/05/17 02:04:08;;;;;;;0.32;0.32;;;;;;;;;;1021767;29;20041;-73
2023/05/17 02:04:39;;;;;;;0.32;0.30;;;;;;;;;;1026260;28;20031;-73
2023/05/17 02:05:10;;;;;;;3.97;1.85;;;;;;;;;;1025699;28;20034;-73
2023/05/17 02:05:41;;;;;;;1.67;0.85;;;;;;;;;;1027356;28;20027;-73
2023/05/17 02:06:11;;;;;;;1.08;0.65;;;;;;;;;;1025498;28;20019;-73
2023/05/17 02:06:42;;;;;;;1.75;0.47;;;;;;;;;;1023023;28;20046;-73
2023/05/17 02:07:12;;;;;;;4.95;1.23;;;;;;;;;;1016960;29;20034;-73
2023/05/17 02:07:43;;;;;;;0.15;0.15;;;;;;;;;;1014128;29;20028;-73
2023/05/17 02:08:13;;;;;;;0.15;0.15;;;;;;;;;;1012467;29;20106;-73
2023/05/17 02:08:44;;;;;;;0.00;0.00;;;;;;;;;;1013463;29;20145;-73
2023/05/17 02:09:14;;;;;;;2.03;1.15;;;;;;;;;;1019629;29;20024;-73
2023/05/17 02:09:45;;;;;;;0.20;0.20;;;;;;;;;;1021268;29;20027;-73
2023/05/17 02:10:15;;;;;;;0.57;0.57;;;;;;;;;;1020542;29;20062;-73
2023/05/17 02:10:46;;;;;;;0.17;0.17;;;;;;;;;;1021823;29;20038;-73
2023/05/17 02:11:16;;;;;;;0.10;0.10;;;;;;;;;;1020953;28;20130;-73
2023/05/17 02:11:47;;;;;;;0.40;0.40;;;;;;;;;;1021291;29;20027;-73
2023/05/17 02:12:17;;;;;;;0.50;0.50;;;;;;;;;;1021459;29;20036;-73
2023/05/17 02:12:49;;;;;;;1.95;1.00;;;;;;;;;;1018339;29;20028;-73
2023/05/17 02:13:20;;;;;;;1.33;1.20;;;;;;;;;;1018389;29;20606;-73
2023/05/17 02:13:50;;;;;;;1.10;0.60;;;;;;;;;;1019385;28;20504;-73
2023/05/17 02:14:21;;;;;;;0.08;0.08;;;;;;;;;;1021617;28;20031;-73
2023/05/17 02:14:53;;;;;;;6.18;0.47;;;;;;;;;;1024167;28;20038;-73
2023/05/17 02:15:23;;;;;;;0.22;0.15;;;;;;;;;;1024235;28;20114;-73
2023/05/17 02:15:54;;;;;;;0.10;0.10;;;;;;;;;;1021207;29;20038;-73
2023/05/17 02:16:24;;;;;;;0.00;0.00;;;;;;;;;;1016745;29;20187;-73
2023/05/17 02:16:55;;;;;;;2.08;0.82;;;;;;;;;;1012712;29;20166;-73
2023/05/17 02:17:26;;;;;;;0.65;0.40;;;;;;;;;;1016117;29;20156;-73
2023/05/17 02:17:56;;;;;;;0.88;0.80;;;;;;;;;;1022003;29;20028;-73
2023/05/17 02:18:27;;;;;;;3.72;0.75;;;;;;;;;;1026855;28;20504;-73
2023/05/17 02:18:58;;;;;;;17.52;0.57;;;;;;;;;;1026083;28;20034;-73
2023/05/17 02:19:28;;;;;;;0.10;0.10;;;;;;;;;;1025456;28;20019;-74
2023/05/17 02:19:59;;;;;;;15.90;2.28;;;;;;;;;;1021954;29;20059;-72
2023/05/17 02:20:30;;;;;;;1.08;0.52;;;;;;;;;;1021075;29;20023;-73
2023/05/17 02:21:01;;;;;;;0.00;0.00;;;;;;;;;;1023223;29;20082;-72
2023/05/17 02:21:32;;;;;;;2.35;0.75;;;;;;;;;;1020095;29;20028;-73
2023/05/17 02:22:03;;;;;;;1.45;1.00;;;;;;;;;;1024333;28;20084;-73
2023/05/17 02:22:34;;;;;;;5.13;2.05;;;;;;;;;;1024038;28;20121;-73
2023/05/17 02:23:05;;;;;;;5.07;1.85;;;;;;;;;;1023750;28;20473;-73
2023/05/17 02:23:36;;;;;;;1.42;1.33;;;;;;;;;;1022951;29;20569;-73
2023/05/17 02:24:07;;;;;;;3.75;0.88;;;;;;;;;;1021475;29;20430;-73
2023/05/17 02:24:37;;;;;;;0.63;0.30;;;;;;;;;;1021589;29;21098;-73
2023/05/17 02:25:08;;;;;;;5.72;1.52;;;;;;;;;;1019349;29;20054;-72
2023/05/17 02:25:38;;;;;;;4.80;1.27;;;;;;;;;;1016545;29;20035;-73
2023/05/17 02:26:09;;;;;;;4.10;1.13;;;;;;;;;;1018169;29;20035;-74
2023/05/17 02:26:41;;;;;;;0.52;0.52;;;;;;;;;;1014999;29;20046;-74
2023/05/17 02:27:12;;;;;;;1.25;0.90;;;;;;;;;;993865;29;20022;-73
2023/05/17 02:27:42;;;;;;;0.00;0.00;;;;;;;;;;1022753;28;20063;-73
2023/05/17 02:28:13;;;;;;;5.63;1.48;;;;;;;;;;1017963;29;20039;-74
2023/05/17 02:28:44;;;;;;;0.00;0.00;;;;;;;;;;1020302;29;20058;-74
2023/05/17 02:29:14;;;;;;;2.42;0.75;;;;;;;;;;1017824;29;20580;-74
2023/05/17 02:29:45;;;;;;;2.72;1.13;;;;;;;;;;1019638;29;20618;-74
2023/05/17 02:30:16;;;;;;;0.82;0.75;;;;;;;;;;1018632;28;20515;-74
2023/05/17 02:30:46;;;;;;;1.45;1.35;;;;;;;;;;1020442;29;20268;-73
2023/05/17 02:31:17;;;;;;;2.70;1.67;;;;;;;;;;1018403;29;20091;-74
2023/05/17 02:31:47;;;;;;;1.30;1.20;;;;;;;;;;1020524;29;20043;-74
2023/05/17 02:32:18;;;;;;;3.55;1.48;;;;;;;;;;1019508;29;20069;-74
2023/05/17 02:32:50;;;;;;;2.38;1.58;;;;;;;;;;1015482;29;20409;-72
2023/05/17 02:33:22;;;;;;;0.00;0.00;;;;;;;;;;1017501;29;20038;-72
2023/05/17 02:33:53;;;;;;;1.35;1.05;;;;;;;;;;1017158;29;20023;-72
2023/05/17 02:34:24;;;;;;;0.45;0.20;;;;;;;;;;1018120;29;20031;-74
2023/05/17 02:34:55;;;;;;;1.33;0.77;;;;;;;;;;1022984;28;20599;-74
2023/05/17 02:35:26;;;;;;;1.50;1.00;;;;;;;;;;1019415;29;20036;-74
2023/05/17 02:35:56;;;;;;;5.32;1.17;;;;;;;;;;1021698;28;20606;-74
2023/05/17 02:36:27;;;;;;;0.93;0.77;;;;;;;;;;1024263;28;20434;-74
2023/05/17 02:36:59;;;;;;;1.48;1.38;;;;;;;;;;1021030;29;20054;-74
2023/05/17 02:37:30;;;;;;;2.22;2.03;;;;;;;;;;1018295;29;20545;-74
2023/05/17 02:38:00;;;;;;;0.85;0.77;;;;;;;;;;1020855;29;20521;-74
2023/05/17 02:38:31;;;;;;;0.28;0.28;;;;;;;;;;1020751;29;20019;-74
2023/05/17 02:39:02;;;;;;;2.35;1.13;;;;;;;;;;1020323;29;20046;-74
2023/05/17 02:39:32;;;;;;;2.67;1.00;;;;;;;;;;1014046;29;20031;-74
2023/05/17 02:40:08;;;;;;;7.03;0.63;;;;;;;;;;1019033;28;20030;-74
2023/05/17 02:40:40;;;;;;;0.00;0.00;;;;;;;;;;1020869;28;20027;-74
2023/05/17 02:41:11;;;;;;;0.88;0.57;;;;;;;;;;1019238;29;20023;-74
2023/05/17 02:41:42;;;;;;;1.35;1.25;;;;;;;;;;1019139;29;20667;-75
2023/05/17 02:42:13;;;;;;;0.30;0.30;;;;;;;;;;1021013;29;20332;-74
2023/05/17 02:42:44;;;;;;;1.27;1.13;;;;;;;;;;1020157;28;20036;-74
2023/05/17 02:43:14;;;;;;;0.10;0.10;;;;;;;;;;1020672;29;20603;-74
2023/05/17 02:43:45;;;;;;;1.98;1.88;;;;;;;;;;1020649;29;20031;-75
2023/05/17 02:44:15;;;;;;;1.33;0.75;;;;;;;;;;1017936;29;20941;-74
2023/05/17 02:44:51;;;;;;;0.10;0.10;;;;;;;;;;1016964;29;20401;-75
2023/05/17 02:45:22;;;;;;;0.28;0.28;;;;;;;;;;1020584;29;20034;-74
2023/05/17 02:45:52;;;;;;;1.92;1.83;;;;;;;;;;1018952;29;20063;-74
2023/05/17 02:46:23;;;;;;;0.88;0.47;;;;;;;;;;1018557;29;20035;-74
2023/05/17 02:46:54;;;;;;;7.90;1.23;;;;;;;;;;1023689;28;20065;-73
2023/05/17 02:47:24;;;;;;;0.15;0.15;;;;;;;;;;1022488;28;20063;-73
2023/05/17 02:47:55;;;;;;;0.95;0.82;;;;;;;;;;1025735;28;20061;-73
2023/05/17 02:48:26;;;;;;;0.10;0.08;;;;;;;;;;1021423;29;20040;-73
2023/05/17 02:48:56;;;;;;;0.30;0.25;;;;;;;;;;1020484;29;20019;-73
2023/05/17 02:49:27;;;;;;;0.32;0.32;;;;;;;;;;1020287;29;20043;-74
2023/05/17 02:49:58;;;;;;;0.10;0.10;;;;;;;;;;1018426;29;20019;-74
2023/05/17 02:50:28;;;;;;;0.77;0.77;;;;;;;;;;1018226;29;20404;-73
2023/05/17 02:50:59;;;;;;;0.30;0.25;;;;;;;;;;1016881;29;20150;-73
2023/05/17 02:51:30;;;;;;;3.90;0.77;;;;;;;;;;1012375;29;20555;-74
2023/05/17 02:52:01;;;;;;;0.00;0.00;;;;;;;;;;1017800;29;20032;-74
2023/05/17 02:52:32;;;;;;;0.68;0.68;;;;;;;;;;1022105;29;20039;-74
2023/05/17 02:53:03;;;;;;;1.77;1.48;;;;;;;;;;1020147;28;20033;-73
2023/05/17 02:53:34;;;;;;;0.73;0.73;;;;;;;;;;1024487;29;20183;-73
2023/05/17 02:54:04;;;;;;;1.05;0.32;;;;;;;;;;1019543;28;20035;-73
2023/05/17 02:54:35;;;;;;;1.95;0.32;;;;;;;;;;1023057;28;20031;-73
2023/05/17 02:55:06;;;;;;;0.43;0.22;;;;;;;;;;1023121;28;20498;-73
2023/05/17 02:55:36;;;;;;;0.35;0.32;;;;;;;;;;1023698;28;20030;-73
2023/05/17 02:56:07;;;;;;;0.20;0.08;;;;;;;;;;1023149;28;20054;-74
2023/05/17 02:56:37;;;;;;;1.75;0.75;;;;;;;;;;1019137;28;20063;-73
2023/05/17 02:57:09;;;;;;;0.10;0.10;;;;;;;;;;1017237;29;20043;-73
2023/05/17 02:57:39;;;;;;;0.80;0.20;;;;;;;;;;1021917;29;20079;-74
2023/05/17 02:58:10;;;;;;;0.35;0.30;;;;;;;;;;1020731;29;20027;-74
2023/05/17 02:58:41;;;;;;;1.75;1.65;;;;;;;;;;1018451;29;20024;-74
2023/05/17 02:59:12;;;;;;;0.03;0.03;;;;;;;;;;1017492;29;20049;-74
2023/05/17 02:59:42;;;;;;;0.50;0.32;;;;;;;;;;1012305;29;20571;-73
2023/05/17 03:00:13;;;;;;;2.63;1.75;;;;;;;;;;1011428;29;20496;-73
2023/05/17 03:00:45;;;;;;;2.55;0.80;;;;;;;;;;1012012;29;20078;-73
2023/05/17 03:01:15;;;;;;;1.98;1.20;;;;;;;;;;1016461;29;20491;-72
2023/05/17 03:01:46;;;;;;;0.65;0.63;;;;;;;;;;1018535;29;20390;-73
2023/05/17 03:02:16;;;;;;;0.60;0.52;;;;;;;;;;1018594;29;20031;-74
2023/05/17 03:02:47;;;;;;;0.00;0.00;;;;;;;;;;1021081;29;20050;-73
2023/05/17 03:03:17;;;;;;;0.55;0.40;;;;;;;;;;1018061;28;20147;-73
2023/05/17 03:03:48;;;;;;;1.85;1.08;;;;;;;;;;1021226;29;20034;-73
2023/05/17 03:04:19;;;;;;;0.90;0.85;;;;;;;;;;1017347;29;20120;-73
2023/05/17 03:04:49;;;;;;;2.13;0.80;;;;;;;;;;1019492;29;20074;-73
2023/05/17 03:05:20;;;;;;;5.13;0.20;;;;;;;;;;1017332;29;20024;-73
2023/05/17 03:05:51;;;;;;;1.85;1.02;;;;;;;;;;1020828;29;20034;-73
2023/05/17 03:06:21;;;;;;;1.23;1.15;;;;;;;;;;1014703;29;20028;-74
2023/05/17 03:06:52;;;;;;;2.00;0.70;;;;;;;;;;1010965;29;20436;-74
2023/05/17 03:07:23;;;;;;;0.00;0.00;;;;;;;;;;1012260;29;20036;-74
2023/05/17 03:07:54;;;;;;;4.57;1.73;;;;;;;;;;1010560;29;20033;-73
2023/05/17 03:08:25;;;;;;;0.50;0.50;;;;;;;;;;1014927;29;20063;-74
2023/05/17 03:08:58;;;;;;;2.67;0.65;;;;;;;;;;1016438;29;20444;-73
2023/05/17 03:09:29;;;;;;;3.72;2.55;;;;;;;;;;1013466;29;20024;-73
2023/05/17 03:09:59;;;;;;;0.93;0.60;;;;;;;;;;1013647;29;20036;-73
2023/05/17 03:10:30;;;;;;;3.45;1.02;;;;;;;;;;1014845;29;20036;-73
2023/05/17 03:11:00;;;;;;;0.00;0.00;;;;;;;;;;1014971;29;20603;-74
2023/05/17 03:11:31;;;;;;;2.15;1.30;;;;;;;;;;1021190;29;20090;-73
2023/05/17 03:12:02;;;;;;;1.45;1.17;;;;;;;;;;1021744;29;20491;-73
2023/05/17 03:12:34;;;;;;;0.40;0.40;;;;;;;;;;1021773;29;20083;-73